Time;durP1;ratioP1;P1;durP2;ratioP2;P2;SDS_P1;SDS_P2;PMS_P1;PMS_P2;Temp;Humidity;BMP_temperature;BMP_pressure;BME280_temperature;BME280_humidity;BME280_pressure;Samples;Min_cycle;Max_cycle;Signal;HPM_P1;HPM_P2
2022/03/04 00:01:13;;;;;;;6.00;2.55;;;;;;;;;;7385379;19;20114;-73
2022/03/04 00:03:38;;;;;;;7.47;2.10;;;;;;;;;;7383498;19;20076;-73
2022/03/04 00:06:04;;;;;;;6.68;2.42;;;;;;;;;;7384851;19;20563;-74
2022/03/04 00:08:30;;;;;;;4.45;2.25;;;;;;;;;;7383509;19;20010;-74
2022/03/04 00:10:55;;;;;;;6.07;2.38;;;;;;;;;;7383856;19;20043;-72
2022/03/04 00:13:20;;;;;;;4.25;2.20;;;;;;;;;;7383077;19;20014;-73
2022/03/04 00:15:46;;;;;;;4.97;2.50;;;;;;;;;;7383119;19;20010;-74
2022/03/04 00:18:11;;;;;;;5.07;2.55;;;;;;;;;;7381743;19;20073;-74
2022/03/04 00:20:36;;;;;;;7.35;2.80;;;;;;;;;;7385089;19;20042;-74
2022/03/04 00:23:02;;;;;;;7.45;2.65;;;;;;;;;;7383045;19;20007;-73
2022/03/04 00:25:28;;;;;;;6.68;2.67;;;;;;;;;;7384801;19;20014;-74
2022/03/04 00:27:53;;;;;;;6.70;2.58;;;;;;;;;;7382340;19;20011;-73
2022/03/04 00:30:19;;;;;;;7.18;2.70;;;;;;;;;;7381819;19;20049;-74
2022/03/04 00:32:44;;;;;;;7.20;2.13;;;;;;;;;;7385192;19;20018;-72
2022/03/04 00:35:10;;;;;;;6.00;2.50;;;;;;;;;;7383342;19;20342;-73
2022/03/04 00:37:35;;;;;;;4.88;2.70;;;;;;;;;;7384779;19;20413;-73
2022/03/04 00:40:01;;;;;;;7.85;2.70;;;;;;;;;;7383339;19;20010;-74
2022/03/04 00:42:29;;;;;;;7.53;2.85;;;;;;;;;;7384340;19;20043;-74
2022/03/04 00:44:55;;;;;;;4.47;2.25;;;;;;;;;;7383200;19;20066;-73
2022/03/04 00:47:20;;;;;;;6.53;2.33;;;;;;;;;;7381011;19;20027;-75
2022/03/04 00:49:45;;;;;;;4.65;2.33;;;;;;;;;;7383656;19;20420;-74
2022/03/04 00:52:10;;;;;;;6.85;2.70;;;;;;;;;;7384356;19;20350;-73
2022/03/04 00:54:36;;;;;;;5.72;2.67;;;;;;;;;;7382765;19;20449;-73
2022/03/04 00:57:01;;;;;;;6.53;2.63;;;;;;;;;;7382688;19;20011;-73
2022/03/04 00:59:26;;;;;;;5.38;2.28;;;;;;;;;;7383008;19;20010;-74
2022/03/04 01:01:52;;;;;;;9.30;2.47;;;;;;;;;;7382501;19;20193;-74
2022/03/04 01:04:18;;;;;;;6.93;2.45;;;;;;;;;;7381226;19;20006;-74
2022/03/04 01:06:43;;;;;;;5.78;2.53;;;;;;;;;;7379868;19;20457;-72
2022/03/04 01:09:09;;;;;;;5.97;2.70;;;;;;;;;;7382366;19;20011;-74
2022/03/04 01:11:34;;;;;;;6.00;2.83;;;;;;;;;;7380398;19;20014;-74
2022/03/04 01:13:59;;;;;;;5.07;2.25;;;;;;;;;;7382883;19;20006;-73
2022/03/04 01:16:25;;;;;;;5.93;2.97;;;;;;;;;;7379723;19;20011;-74
2022/03/04 01:18:51;;;;;;;7.13;2.88;;;;;;;;;;7379013;19;20002;-74
2022/03/04 01:21:16;;;;;;;6.32;2.55;;;;;;;;;;7381531;19;20003;-73
2022/03/04 01:23:42;;;;;;;8.05;2.45;;;;;;;;;;7381019;19;20006;-73
2022/03/04 01:26:07;;;;;;;6.18;2.55;;;;;;;;;;7378903;19;20006;-73
2022/03/04 01:28:32;;;;;;;6.00;2.50;;;;;;;;;;7387347;19;20070;-74
2022/03/04 01:30:58;;;;;;;5.93;2.83;;;;;;;;;;7387268;19;20039;-72
2022/03/04 01:33:23;;;;;;;5.53;2.22;;;;;;;;;;7382294;19;19998;-73
2022/03/04 01:35:48;;;;;;;6.93;2.50;;;;;;;;;;7381991;19;20383;-74
2022/03/04 01:38:14;;;;;;;4.72;2.42;;;;;;;;;;7381275;19;20070;-74
2022/03/04 01:40:40;;;;;;;5.28;2.53;;;;;;;;;;7384513;19;20037;-72
2022/03/04 01:43:05;;;;;;;6.72;2.50;;;;;;;;;;7383459;19;20468;-72
2022/03/04 01:45:31;;;;;;;7.43;2.85;;;;;;;;;;7382416;19;20019;-72
2022/03/04 01:47:56;;;;;;;6.57;2.97;;;;;;;;;;7383509;19;20014;-73
2022/03/04 01:50:23;;;;;;;9.68;3.00;;;;;;;;;;7382111;19;20018;-73
2022/03/04 01:52:48;;;;;;;6.65;2.40;;;;;;;;;;7382830;19;20010;-72
2022/03/04 01:55:14;;;;;;;6.45;2.60;;;;;;;;;;7380713;19;20025;-73
2022/03/04 01:57:39;;;;;;;6.97;2.80;;;;;;;;;;7381105;19;20343;-73
2022/03/04 02:00:07;;;;;;;6.07;2.85;;;;;;;;;;7381338;19;20044;-74
2022/03/04 02:02:33;;;;;;;7.70;2.72;;;;;;;;;;7380616;19;20010;-73
2022/03/04 02:04:58;;;;;;;8.25;2.70;;;;;;;;;;7382917;19;20021;-74
2022/03/04 02:07:23;;;;;;;8.27;3.03;;;;;;;;;;7377668;19;19998;-72
2022/03/04 02:09:49;;;;;;;7.38;2.90;;;;;;;;;;7380186;19;20119;-74
2022/03/04 02:12:14;;;;;;;7.90;2.80;;;;;;;;;;7380250;19;20029;-74
2022/03/04 02:14:40;;;;;;;6.93;2.85;;;;;;;;;;7380102;19;20043;-73
2022/03/04 02:17:05;;;;;;;8.10;2.80;;;;;;;;;;7379598;19;20026;-74
2022/03/04 02:19:30;;;;;;;6.32;2.83;;;;;;;;;;7380739;19;20014;-73
2022/03/04 02:22:00;;;;;;;7.70;2.50;;;;;;;;;;7377680;19;20010;-72
2022/03/04 02:24:28;;;;;;;10.00;3.17;;;;;;;;;;7380812;19;20085;-72
2022/03/04 02:26:56;;;;;;;8.55;3.00;;;;;;;;;;7380115;19;20666;-73
2022/03/04 02:29:23;;;;;;;8.82;2.75;;;;;;;;;;7380365;19;20087;-73
2022/03/04 02:31:49;;;;;;;5.75;2.72;;;;;;;;;;7381367;19;20128;-71
2022/03/04 02:34:14;;;;;;;8.18;2.67;;;;;;;;;;7382747;19;20011;-72
2022/03/04 02:36:40;;;;;;;6.18;2.35;;;;;;;;;;7379944;19;20074;-73
2022/03/04 02:39:06;;;;;;;8.30;2.70;;;;;;;;;;7378606;19;20010;-73
2022/03/04 02:41:35;;;;;;;7.53;2.67;;;;;;;;;;7380585;19;20013;-73
2022/03/04 02:44:02;;;;;;;6.97;2.70;;;;;;;;;;7381838;19;20006;-72
2022/03/04 02:46:27;;;;;;;7.80;2.83;;;;;;;;;;7379106;19;20017;-74
2022/03/04 02:48:53;;;;;;;6.95;2.45;;;;;;;;;;7380336;19;20007;-72
2022/03/04 02:51:18;;;;;;;6.68;2.50;;;;;;;;;;7381574;19;20015;-75
2022/03/04 02:53:43;;;;;;;6.35;2.70;;;;;;;;;;7378320;19;20026;-74
2022/03/04 02:56:09;;;;;;;6.38;2.90;;;;;;;;;;7378394;19;20006;-73
2022/03/04 02:58:34;;;;;;;6.65;2.75;;;;;;;;;;7377964;19;20019;-74
2022/03/04 03:00:59;;;;;;;7.05;2.97;;;;;;;;;;7377412;19;20006;-73
2022/03/04 03:03:25;;;;;;;6.82;3.05;;;;;;;;;;7380167;19;20733;-74
2022/03/04 03:05:50;;;;;;;7.72;3.38;;;;;;;;;;7380363;19;20007;-74
2022/03/04 03:08:16;;;;;;;7.18;2.72;;;;;;;;;;7380493;19;20487;-73
2022/03/04 03:10:41;;;;;;;8.43;3.15;;;;;;;;;;7386301;19;20022;-74
2022/03/04 03:13:06;;;;;;;6.35;2.70;;;;;;;;;;7387146;19;20017;-73
2022/03/04 03:15:32;;;;;;;8.10;2.90;;;;;;;;;;7384925;19;20014;-73
2022/03/04 03:17:57;;;;;;;5.05;2.33;;;;;;;;;;7388522;19;20345;-74
2022/03/04 03:20:23;;;;;;;6.88;2.72;;;;;;;;;;7385250;19;20317;-74
2022/03/04 03:22:48;;;;;;;6.60;2.78;;;;;;;;;;7384731;19;20002;-74
2022/03/04 03:25:14;;;;;;;8.00;2.65;;;;;;;;;;7385045;19;20022;-73
2022/03/04 03:27:41;;;;;;;8.13;2.72;;;;;;;;;;7384127;19;20014;-74
2022/03/04 03:30:07;;;;;;;7.72;2.80;;;;;;;;;;7384167;19;20521;-73
2022/03/04 03:32:33;;;;;;;8.13;3.30;;;;;;;;;;7384440;19;20017;-73
2022/03/04 03:34:58;;;;;;;5.68;2.53;;;;;;;;;;7382952;19;20010;-74
2022/03/04 03:37:24;;;;;;;6.05;2.33;;;;;;;;;;7385111;19;20681;-73
2022/03/04 03:39:49;;;;;;;6.63;2.70;;;;;;;;;;7382494;19;20174;-73
2022/03/04 03:42:14;;;;;;;6.28;2.67;;;;;;;;;;7384755;19;20237;-72
2022/03/04 03:44:40;;;;;;;9.18;3.33;;;;;;;;;;7383431;19;20189;-74
2022/03/04 03:47:05;;;;;;;8.80;2.95;;;;;;;;;;7383818;19;20432;-73
2022/03/04 03:49:31;;;;;;;7.18;2.70;;;;;;;;;;7380062;19;20015;-74
2022/03/04 03:51:56;;;;;;;7.88;2.53;;;;;;;;;;7384383;19;20003;-72
2022/03/04 03:54:22;;;;;;;7.70;2.60;;;;;;;;;;7384902;19;20040;-74
2022/03/04 03:56:48;;;;;;;6.03;3.00;;;;;;;;;;7382307;19;20014;-73
2022/03/04 03:59:13;;;;;;;5.78;2.60;;;;;;;;;;7384689;19;20044;-74
2022/03/04 04:01:38;;;;;;;5.90;2.90;;;;;;;;;;7384206;19;20789;-73
2022/03/04 04:04:05;;;;;;;5.78;2.33;;;;;;;;;;7383487;19;20506;-73
2022/03/04 04:06:31;;;;;;;7.60;2.83;;;;;;;;;;7381824;19;20014;-74
2022/03/04 04:08:56;;;;;;;6.63;2.42;;;;;;;;;;7383762;19;20400;-72
2022/03/04 04:11:21;;;;;;;9.50;3.00;;;;;;;;;;7384050;19;20026;-74
2022/03/04 04:13:47;;;;;;;10.60;3.83;;;;;;;;;;7384044;19;20014;-73
2022/03/04 04:16:14;;;;;;;7.57;2.55;;;;;;;;;;7381777;19;20006;-73
2022/03/04 04:18:40;;;;;;;7.38;2.63;;;;;;;;;;7381413;19;20060;-73
2022/03/04 04:21:06;;;;;;;5.95;2.63;;;;;;;;;;7382430;19;20006;-72
2022/03/04 04:23:31;;;;;;;6.07;2.80;;;;;;;;;;7385066;19;20021;-73
2022/03/04 04:25:57;;;;;;;7.40;2.88;;;;;;;;;;7383945;19;20006;-74
2022/03/04 04:28:25;;;;;;;9.40;2.50;;;;;;;;;;7384200;19;20089;-72
2022/03/04 04:30:50;;;;;;;8.68;2.50;;;;;;;;;;7385746;19;20027;-73
2022/03/04 04:33:17;;;;;;;7.50;2.35;;;;;;;;;;7384838;19;20018;-74
2022/03/04 04:35:42;;;;;;;8.60;2.90;;;;;;;;;;7383176;19;20009;-74
2022/03/04 04:38:08;;;;;;;6.55;2.30;;;;;;;;;;7381521;19;20577;-73
2022/03/04 04:40:33;;;;;;;7.75;2.75;;;;;;;;;;7383281;19;20011;-73
2022/03/04 04:42:58;;;;;;;6.93;2.47;;;;;;;;;;7382918;19;20007;-74
2022/03/04 04:45:24;;;;;;;7.35;2.75;;;;;;;;;;7380721;19;20018;-74
2022/03/04 04:47:49;;;;;;;7.78;2.75;;;;;;;;;;7383594;19;20498;-72
2022/03/04 04:50:14;;;;;;;6.85;2.25;;;;;;;;;;7381445;19;20006;-74
2022/03/04 04:52:39;;;;;;;7.97;2.60;;;;;;;;;;7379468;19;20053;-73
2022/03/04 04:55:05;;;;;;;6.80;2.60;;;;;;;;;;7382852;19;20456;-73
2022/03/04 04:57:30;;;;;;;9.18;2.95;;;;;;;;;;7376042;19;20030;-74
2022/03/04 04:59:56;;;;;;;7.05;2.65;;;;;;;;;;7378829;19;20178;-72
2022/03/04 05:02:21;;;;;;;6.95;2.70;;;;;;;;;;7381825;19;20022;-71
2022/03/04 05:04:47;;;;;;;7.15;2.55;;;;;;;;;;7378752;19;20154;-73
2022/03/04 05:07:13;;;;;;;14.05;2.50;;;;;;;;;;7378371;19;20035;-73
2022/03/04 05:09:38;;;;;;;6.28;2.30;;;;;;;;;;7376888;19;20070;-71
2022/03/04 05:12:04;;;;;;;8.52;2.67;;;;;;;;;;7379224;19;20548;-72
2022/03/04 05:14:30;;;;;;;6.90;2.40;;;;;;;;;;7376299;19;20006;-74
2022/03/04 05:16:55;;;;;;;7.38;2.78;;;;;;;;;;7375682;19;20006;-74
2022/03/04 05:19:20;;;;;;;8.13;2.50;;;;;;;;;;7345580;19;20015;-72
2022/03/04 05:21:46;;;;;;;8.63;2.58;;;;;;;;;;7374200;19;20087;-73
2022/03/04 05:24:12;;;;;;;6.65;2.58;;;;;;;;;;7378480;19;20017;-74
2022/03/04 05:26:39;;;;;;;7.55;2.55;;;;;;;;;;7376744;19;20015;-73
2022/03/04 05:29:09;;;;;;;11.32;2.75;;;;;;;;;;7377322;19;20007;-73
2022/03/04 05:31:35;;;;;;;7.68;2.92;;;;;;;;;;7376750;19;20026;-73
2022/03/04 05:34:00;;;;;;;8.40;2.70;;;;;;;;;;7380695;19;20044;-73
2022/03/04 05:36:26;;;;;;;6.90;2.60;;;;;;;;;;7378321;19;20006;-74
2022/03/04 05:38:52;;;;;;;10.57;2.80;;;;;;;;;;7375972;19;20317;-73
2022/03/04 05:41:18;;;;;;;9.85;2.63;;;;;;;;;;7379451;19;20402;-72
2022/03/04 05:43:44;;;;;;;12.32;2.67;;;;;;;;;;7379385;19;20038;-72
2022/03/04 05:46:10;;;;;;;6.55;2.60;;;;;;;;;;7376170;19;20015;-74
2022/03/04 05:48:36;;;;;;;10.88;2.60;;;;;;;;;;7379060;19;20373;-72
2022/03/04 05:51:01;;;;;;;8.85;2.55;;;;;;;;;;7381670;19;20025;-74
2022/03/04 05:53:26;;;;;;;7.00;2.55;;;;;;;;;;7378497;19;19999;-74
2022/03/04 05:55:52;;;;;;;9.63;2.97;;;;;;;;;;7374996;19;20014;-74
2022/03/04 05:58:17;;;;;;;8.93;2.60;;;;;;;;;;7372909;19;20070;-74
2022/03/04 06:00:43;;;;;;;8.98;2.97;;;;;;;;;;7378235;19;20059;-74
2022/03/04 06:03:09;;;;;;;6.07;2.70;;;;;;;;;;7378722;19;20585;-71
2022/03/04 06:05:35;;;;;;;10.02;2.90;;;;;;;;;;7380591;19;20007;-73
2022/03/04 06:08:00;;;;;;;10.07;3.33;;;;;;;;;;7378641;19;20020;-72
2022/03/04 06:10:26;;;;;;;9.50;3.30;;;;;;;;;;7376843;19;19998;-72
2022/03/04 06:12:51;;;;;;;7.15;3.13;;;;;;;;;;7379412;19;20010;-74
2022/03/04 06:15:18;;;;;;;6.65;2.90;;;;;;;;;;7371029;19;20003;-72
2022/03/04 06:17:50;;;;;;;13.93;3.75;;;;;;;;;;7371167;19;20035;-74
2022/03/04 06:20:16;;;;;;;8.85;3.17;;;;;;;;;;7378631;19;20003;-74
2022/03/04 06:22:42;;;;;;;6.50;2.75;;;;;;;;;;7378412;19;20084;-74
2022/03/04 06:25:09;;;;;;;12.10;3.22;;;;;;;;;;7378810;19;20006;-74
2022/03/04 06:27:34;;;;;;;8.48;3.03;;;;;;;;;;7370913;19;20400;-73
2022/03/04 06:30:00;;;;;;;8.23;2.47;;;;;;;;;;7375646;19;20015;-74
2022/03/04 06:32:25;;;;;;;6.75;2.75;;;;;;;;;;7371545;19;19998;-74
2022/03/04 06:34:50;;;;;;;7.78;3.08;;;;;;;;;;7377410;19;20007;-72
2022/03/04 06:37:16;;;;;;;10.05;2.83;;;;;;;;;;7376654;19;20663;-75
2022/03/04 06:39:41;;;;;;;6.68;2.50;;;;;;;;;;7376836;19;20029;-75
2022/03/04 06:42:06;;;;;;;8.70;2.67;;;;;;;;;;7377922;19;20109;-74
2022/03/04 06:44:32;;;;;;;9.20;2.97;;;;;;;;;;7384396;19;20130;-71
2022/03/04 06:46:57;;;;;;;8.88;2.70;;;;;;;;;;7379571;19;20010;-74
2022/03/04 06:49:23;;;;;;;7.75;2.80;;;;;;;;;;7384650;19;20151;-74
2022/03/04 06:51:48;;;;;;;6.15;2.42;;;;;;;;;;7386285;19;20030;-74
2022/03/04 06:54:13;;;;;;;7.70;2.55;;;;;;;;;;7385463;19;20813;-74
2022/03/04 06:56:39;;;;;;;6.95;2.67;;;;;;;;;;7384981;19;20027;-74
2022/03/04 06:59:04;;;;;;;7.28;2.67;;;;;;;;;;7384710;19;20002;-75
2022/03/04 07:01:30;;;;;;;7.57;2.40;;;;;;;;;;7386470;19;20015;-74
2022/03/04 07:03:55;;;;;;;6.93;2.90;;;;;;;;;;7386284;19;20122;-74
2022/03/04 07:06:20;;;;;;;10.38;3.28;;;;;;;;;;7384726;19;20029;-74
2022/03/04 07:08:46;;;;;;;8.48;3.40;;;;;;;;;;7384857;19;20047;-74
2022/03/04 07:11:11;;;;;;;8.32;2.60;;;;;;;;;;7385036;19;20023;-74
2022/03/04 07:13:37;;;;;;;8.38;3.47;;;;;;;;;;7386233;19;20011;-74
2022/03/04 07:16:03;;;;;;;6.47;3.05;;;;;;;;;;7382458;19;20007;-74
2022/03/04 07:18:31;;;;;;;10.02;3.28;;;;;;;;;;7383057;19;20018;-74
2022/03/04 07:20:58;;;;;;;7.57;2.88;;;;;;;;;;7386246;19;19999;-74
2022/03/04 07:23:24;;;;;;;6.68;3.05;;;;;;;;;;7387218;19;20014;-74
2022/03/04 07:25:50;;;;;;;7.15;2.80;;;;;;;;;;7385917;19;20010;-74
2022/03/04 07:28:16;;;;;;;6.32;2.58;;;;;;;;;;7384580;19;20047;-74
2022/03/04 07:30:41;;;;;;;6.40;2.80;;;;;;;;;;7386602;19;20508;-75
2022/03/04 07:33:06;;;;;;;6.72;2.92;;;;;;;;;;7384257;19;20006;-75
2022/03/04 07:35:32;;;;;;;7.55;3.03;;;;;;;;;;7386754;19;20011;-75
2022/03/04 07:37:57;;;;;;;6.38;2.70;;;;;;;;;;7385737;19;20036;-75
2022/03/04 07:40:22;;;;;;;7.60;3.05;;;;;;;;;;7385829;19;20435;-74
2022/03/04 07:42:48;;;;;;;6.43;2.42;;;;;;;;;;7381076;19;20009;-73
2022/03/04 07:45:14;;;;;;;5.65;2.65;;;;;;;;;;7384523;19;20010;-73
2022/03/04 07:47:41;;;;;;;12.95;3.42;;;;;;;;;;7380849;19;20265;-74
2022/03/04 07:50:13;;;;;;;7.85;2.85;;;;;;;;;;7385521;19;20009;-73
2022/03/04 07:52:38;;;;;;;9.55;3.20;;;;;;;;;;7384390;19;20026;-73
2022/03/04 07:55:06;;;;;;;6.95;3.05;;;;;;;;;;7387484;19;20739;-73
2022/03/04 07:57:32;;;;;;;9.55;4.00;;;;;;;;;;7386864;19;20935;-74
2022/03/04 07:59:58;;;;;;;9.23;3.08;;;;;;;;;;7353381;19;20237;-73
2022/03/04 08:02:23;;;;;;;8.65;3.25;;;;;;;;;;7386370;19;20011;-73
2022/03/04 08:04:49;;;;;;;9.75;3.60;;;;;;;;;;7385945;19;20003;-73
2022/03/04 08:07:14;;;;;;;6.95;3.33;;;;;;;;;;7382673;19;20394;-73
2022/03/04 08:09:41;;;;;;;8.27;3.47;;;;;;;;;;7384242;19;20399;-73
2022/03/04 08:12:07;;;;;;;8.75;3.90;;;;;;;;;;7385107;19;20007;-73
2022/03/04 08:14:33;;;;;;;7.53;3.70;;;;;;;;;;7384855;19;20031;-73
2022/03/04 08:16:58;;;;;;;9.23;4.20;;;;;;;;;;7380117;19;20371;-73
2022/03/04 08:19:23;;;;;;;10.18;4.20;;;;;;;;;;7383424;19;20011;-74
2022/03/04 08:21:49;;;;;;;8.55;3.92;;;;;;;;;;7382120;19;20489;-74
2022/03/04 08:24:14;;;;;;;9.88;4.53;;;;;;;;;;7381885;19;20022;-73
2022/03/04 08:26:41;;;;;;;9.32;4.05;;;;;;;;;;7373000;19;20013;-73
2022/03/04 08:29:08;;;;;;;8.57;4.13;;;;;;;;;;7381537;19;19995;-74
2022/03/04 08:31:34;;;;;;;12.15;5.20;;;;;;;;;;7380584;19;20014;-74
2022/03/04 08:33:59;;;;;;;11.05;4.50;;;;;;;;;;7348906;19;20850;-78
2022/03/04 08:36:24;;;;;;;11.85;5.28;;;;;;;;;;7381610;19;20014;-74
2022/03/04 08:38:50;;;;;;;8.55;4.07;;;;;;;;;;7383243;19;20018;-73
2022/03/04 08:41:15;;;;;;;11.18;4.32;;;;;;;;;;7384459;19;20080;-73
2022/03/04 08:43:41;;;;;;;7.70;4.20;;;;;;;;;;7383730;19;20018;-74
2022/03/04 08:46:06;;;;;;;9.40;4.63;;;;;;;;;;7382080;19;20019;-73
2022/03/04 08:48:32;;;;;;;10.65;4.82;;;;;;;;;;7379710;19;20504;-76
2022/03/04 08:50:57;;;;;;;9.52;5.18;;;;;;;;;;7382374;19;20002;-72
2022/03/04 08:53:22;;;;;;;13.80;4.82;;;;;;;;;;7382362;19;19995;-74
2022/03/04 08:55:50;;;;;;;10.55;5.75;;;;;;;;;;7380882;19;20384;-71
2022/03/04 08:58:15;;;;;;;13.32;6.63;;;;;;;;;;7382856;19;20006;-73
2022/03/04 09:00:41;;;;;;;12.48;5.60;;;;;;;;;;7381240;19;20584;-73
2022/03/04 09:03:06;;;;;;;14.52;5.97;;;;;;;;;;7381669;19;20094;-75
2022/03/04 09:05:31;;;;;;;16.98;6.13;;;;;;;;;;7377234;19;20010;-73
2022/03/04 09:07:57;;;;;;;14.70;6.32;;;;;;;;;;7382113;19;20009;-74
2022/03/04 09:10:22;;;;;;;21.38;7.00;;;;;;;;;;7378507;19;20483;-76
2022/03/04 09:12:48;;;;;;;14.40;6.75;;;;;;;;;;7374770;19;20018;-72
2022/03/04 09:15:13;;;;;;;13.60;6.35;;;;;;;;;;7379132;19;20006;-76
2022/03/04 09:17:40;;;;;;;14.25;6.57;;;;;;;;;;7380767;19;20939;-75
2022/03/04 09:20:06;;;;;;;13.90;6.07;;;;;;;;;;7381241;19;20034;-75
2022/03/04 09:22:31;;;;;;;12.90;6.05;;;;;;;;;;7383081;19;20003;-75
2022/03/04 09:24:57;;;;;;;14.05;7.05;;;;;;;;;;7382628;19;20010;-72
2022/03/04 09:27:22;;;;;;;15.43;7.05;;;;;;;;;;7379145;19;20007;-72
2022/03/04 09:29:47;;;;;;;16.08;7.50;;;;;;;;;;7377939;19;20343;-74
2022/03/04 09:32:13;;;;;;;15.95;6.97;;;;;;;;;;7380422;19;20025;-73
2022/03/04 09:34:38;;;;;;;14.48;6.55;;;;;;;;;;7378797;19;20031;-76
2022/03/04 09:37:04;;;;;;;16.05;7.25;;;;;;;;;;7382018;19;20836;-76
2022/03/04 09:39:29;;;;;;;19.83;7.35;;;;;;;;;;7381662;19;20485;-77
2022/03/04 09:41:55;;;;;;;16.85;8.20;;;;;;;;;;7382331;19;20434;-72
2022/03/04 09:44:21;;;;;;;20.00;8.13;;;;;;;;;;7382129;19;20134;-74
2022/03/04 09:46:46;;;;;;;20.17;8.20;;;;;;;;;;7376575;19;20017;-74
2022/03/04 09:49:16;;;;;;;19.13;8.60;;;;;;;;;;7379204;19;20017;-73
2022/03/04 09:51:41;;;;;;;16.02;8.07;;;;;;;;;;7376120;19;20021;-73
2022/03/04 09:54:07;;;;;;;18.33;7.80;;;;;;;;;;7374191;19;20010;-73
2022/03/04 09:56:32;;;;;;;18.77;8.43;;;;;;;;;;7374113;19;20011;-73
2022/03/04 09:58:58;;;;;;;15.65;7.40;;;;;;;;;;7383296;19;20003;-73
2022/03/04 10:01:23;;;;;;;14.85;7.90;;;;;;;;;;7380257;19;20007;-75
2022/03/04 10:03:54;;;;;;;17.58;8.07;;;;;;;;;;7375402;19;20006;-73
2022/03/04 10:06:20;;;;;;;17.23;7.78;;;;;;;;;;7376535;19;20017;-72
2022/03/04 10:08:48;;;;;;;17.00;7.28;;;;;;;;;;7379033;19;20086;-69
2022/03/04 10:11:28;;;;;;;21.35;9.15;;;;;;;;;;7382184;19;20365;-71
2022/03/04 10:13:56;;;;;;;18.15;9.30;;;;;;;;;;7379440;19;20010;-73
2022/03/04 10:16:27;;;;;;;16.75;8.85;;;;;;;;;;7379112;19;20003;-73
2022/03/04 10:19:13;;;;;;;18.65;8.13;;;;;;;;;;7383015;19;20033;-72
2022/03/04 10:21:57;;;;;;;21.08;8.95;;;;;;;;;;7387120;19;20016;-76
2022/03/04 10:24:28;;;;;;;15.75;7.70;;;;;;;;;;7388693;19;20623;-71
2022/03/04 10:27:06;;;;;;;16.95;7.97;;;;;;;;;;7384516;19;20018;-70
2022/03/04 10:29:34;;;;;;;17.23;7.55;;;;;;;;;;7386778;19;20110;-70
2022/03/04 10:32:07;;;;;;;21.00;9.77;;;;;;;;;;7386005;19;20012;-73
2022/03/04 10:34:42;;;;;;;19.52;8.43;;;;;;;;;;7387016;19;20014;-71
2022/03/04 10:37:07;;;;;;;17.30;8.45;;;;;;;;;;7387359;19;20066;-72
2022/03/04 10:39:33;;;;;;;17.73;8.27;;;;;;;;;;7386390;19;20518;-72
2022/03/04 10:41:58;;;;;;;15.68;8.20;;;;;;;;;;7385819;19;20002;-73
2022/03/04 10:44:25;;;;;;;16.67;8.25;;;;;;;;;;7388026;19;20006;-73
2022/03/04 10:46:57;;;;;;;17.30;9.02;;;;;;;;;;7384624;19;20031;-74
2022/03/04 10:49:27;;;;;;;22.95;8.50;;;;;;;;;;7386686;19;20018;-70
2022/03/04 10:52:12;;;;;;;17.80;8.80;;;;;;;;;;7386883;19;20081;-73
2022/03/04 10:54:38;;;;;;;21.70;9.63;;;;;;;;;;7388036;19;20457;-74
2022/03/04 10:57:03;;;;;;;23.50;10.00;;;;;;;;;;7388062;19;20004;-71
2022/03/04 10:59:29;;;;;;;21.73;7.82;;;;;;;;;;7385490;19;20340;-72
2022/03/04 11:01:57;;;;;;;20.08;9.40;;;;;;;;;;7387467;19;20092;-74
2022/03/04 11:04:23;;;;;;;19.98;8.77;;;;;;;;;;7388298;19;20066;-73
2022/03/04 11:06:49;;;;;;;17.67;8.55;;;;;;;;;;7383033;19;20006;-70
2022/03/04 11:09:16;;;;;;;19.48;9.00;;;;;;;;;;7356456;19;20018;-74
2022/03/04 11:11:43;;;;;;;18.35;8.45;;;;;;;;;;7382140;19;20002;-72
2022/03/04 11:14:13;;;;;;;16.85;8.15;;;;;;;;;;7386508;19;20010;-76
2022/03/04 11:16:39;;;;;;;20.25;8.38;;;;;;;;;;7379220;19;20003;-76
2022/03/04 11:19:08;;;;;;;17.75;8.52;;;;;;;;;;7377903;19;20003;-73
2022/03/04 11:21:34;;;;;;;15.15;7.68;;;;;;;;;;7385208;19;20014;-75
2022/03/04 11:23:59;;;;;;;17.83;8.82;;;;;;;;;;7383947;19;20759;-72
2022/03/04 11:26:29;;;;;;;20.60;8.73;;;;;;;;;;7382500;19;20413;-72
2022/03/04 11:28:56;;;;;;;17.00;8.50;;;;;;;;;;7383146;19;20024;-73
2022/03/04 11:31:24;;;;;;;21.83;9.05;;;;;;;;;;7381834;19;20074;-71
2022/03/04 11:34:08;;;;;;;16.70;8.13;;;;;;;;;;7382477;19;20357;-74
2022/03/04 11:36:39;;;;;;;18.73;8.13;;;;;;;;;;7381910;19;20007;-72
2022/03/04 11:39:12;;;;;;;17.02;8.73;;;;;;;;;;7385275;19;20014;-72
2022/03/04 11:41:59;;;;;;;17.15;8.07;;;;;;;;;;7386019;19;20010;-72
2022/03/04 11:44:25;;;;;;;17.23;8.13;;;;;;;;;;7374088;19;20007;-74
2022/03/04 11:46:58;;;;;;;17.45;7.95;;;;;;;;;;7378090;19;20030;-72
2022/03/04 11:49:25;;;;;;;17.83;8.32;;;;;;;;;;7380254;19;20377;-72
2022/03/04 11:52:10;;;;;;;24.88;8.45;;;;;;;;;;7383145;19;20003;-71
2022/03/04 11:54:44;;;;;;;17.23;7.85;;;;;;;;;;7381425;19;20030;-70
2022/03/04 11:57:28;;;;;;;16.17;7.72;;;;;;;;;;7383728;19;20006;-71
2022/03/04 11:59:53;;;;;;;16.23;7.85;;;;;;;;;;7383664;19;20012;-71
2022/03/04 12:02:36;;;;;;;16.23;8.50;;;;;;;;;;7382406;19;20086;-74
2022/03/04 12:05:19;;;;;;;16.58;7.47;;;;;;;;;;7378553;19;20095;-73
2022/03/04 12:08:09;;;;;;;17.27;7.93;;;;;;;;;;7379880;19;20501;-70
2022/03/04 12:10:52;;;;;;;19.60;9.15;;;;;;;;;;7382661;19;20070;-71
2022/03/04 12:13:20;;;;;;;20.17;9.60;;;;;;;;;;7382423;19;20056;-70
2022/03/04 12:16:12;;;;;;;16.83;7.63;;;;;;;;;;7381091;19;20006;-72
2022/03/04 12:18:43;;;;;;;16.88;7.70;;;;;;;;;;7379939;19;20018;-72
2022/03/04 12:21:32;;;;;;;17.58;8.75;;;;;;;;;;7381740;19;20013;-72
2022/03/04 12:24:04;;;;;;;17.13;7.60;;;;;;;;;;7380815;19;20029;-72
2022/03/04 12:26:36;;;;;;;15.18;8.07;;;;;;;;;;7376191;19;20006;-71
2022/03/04 12:29:08;;;;;;;16.20;7.03;;;;;;;;;;7379754;19;20012;-72
2022/03/04 12:31:39;;;;;;;15.23;8.05;;;;;;;;;;7378450;19;20142;-71
2022/03/04 12:34:13;;;;;;;15.18;7.55;;;;;;;;;;7379373;19;20014;-71
2022/03/04 12:36:39;;;;;;;16.97;8.00;;;;;;;;;;7379891;19;20002;-71
2022/03/04 12:39:04;;;;;;;19.90;7.97;;;;;;;;;;7382056;19;20236;-74
2022/03/04 12:41:32;;;;;;;16.20;7.47;;;;;;;;;;7379182;19;20419;-71
2022/03/04 12:44:01;;;;;;;16.40;8.18;;;;;;;;;;7382387;19;20010;-72
2022/03/04 12:46:28;;;;;;;17.77;8.88;;;;;;;;;;7378893;19;20039;-76
2022/03/04 12:48:54;;;;;;;17.98;8.35;;;;;;;;;;7380381;19;20022;-69
2022/03/04 12:51:21;;;;;;;14.57;7.63;;;;;;;;;;7382289;19;20015;-73
2022/03/04 12:53:46;;;;;;;16.65;8.20;;;;;;;;;;7379888;19;20042;-70
2022/03/04 12:56:12;;;;;;;14.07;8.20;;;;;;;;;;7380568;19;20062;-70
2022/03/04 12:58:44;;;;;;;14.35;7.38;;;;;;;;;;7382842;19;20005;-71
2022/03/04 13:01:10;;;;;;;16.15;7.85;;;;;;;;;;7379515;19;20074;-73
2022/03/04 13:03:36;;;;;;;13.73;7.75;;;;;;;;;;7382102;19;20007;-73
2022/03/04 13:06:03;;;;;;;16.23;7.53;;;;;;;;;;7380240;19;20010;-71
2022/03/04 13:08:29;;;;;;;13.77;7.82;;;;;;;;;;7381167;19;20035;-71
2022/03/04 13:10:55;;;;;;;17.73;9.23;;;;;;;;;;7381067;19;20010;-72
2022/03/04 13:13:21;;;;;;;14.18;7.57;;;;;;;;;;7382471;19;20006;-74
2022/03/04 13:15:50;;;;;;;13.15;7.68;;;;;;;;;;7379810;19;20018;-73
2022/03/04 13:18:15;;;;;;;15.35;7.82;;;;;;;;;;7378174;19;20398;-76
2022/03/04 13:21:00;;;;;;;16.67;8.20;;;;;;;;;;7381855;19;20466;-72
2022/03/04 13:23:25;;;;;;;11.60;6.93;;;;;;;;;;7380769;19;20038;-72
2022/03/04 13:25:50;;;;;;;14.60;7.90;;;;;;;;;;7376029;19;20319;-74
2022/03/04 13:28:17;;;;;;;10.95;6.35;;;;;;;;;;7378024;19;20014;-75
2022/03/04 13:30:49;;;;;;;13.52;7.85;;;;;;;;;;7374519;19;20476;-72
2022/03/04 13:33:14;;;;;;;13.63;7.65;;;;;;;;;;7378826;19;20927;-73
2022/03/04 13:35:57;;;;;;;12.15;7.43;;;;;;;;;;7375190;19;20121;-72
2022/03/04 13:38:23;;;;;;;14.23;7.50;;;;;;;;;;7370761;19;20061;-74
2022/03/04 13:40:49;;;;;;;13.90;7.65;;;;;;;;;;7371752;19;20018;-73
2022/03/04 13:43:31;;;;;;;11.15;6.22;;;;;;;;;;7370481;19;20357;-73
2022/03/04 13:45:56;;;;;;;11.20;6.55;;;;;;;;;;7370823;19;20022;-74
2022/03/04 13:48:23;;;;;;;11.95;7.00;;;;;;;;;;7372810;19;20436;-72
2022/03/04 13:50:49;;;;;;;12.40;7.43;;;;;;;;;;7373848;19;20010;-74
2022/03/04 13:53:19;;;;;;;13.15;7.13;;;;;;;;;;7373037;19;20469;-74
2022/03/04 13:55:58;;;;;;;12.60;6.90;;;;;;;;;;7368353;19;20006;-75
2022/03/04 13:58:30;;;;;;;8.93;5.60;;;;;;;;;;7371832;19;20010;-74
2022/03/04 14:00:58;;;;;;;10.98;5.28;;;;;;;;;;7373624;19;20014;-73
2022/03/04 14:03:26;;;;;;;11.13;5.50;;;;;;;;;;7372533;19;20006;-75
2022/03/04 14:06:05;;;;;;;11.18;5.47;;;;;;;;;;7374141;19;20012;-74
2022/03/04 14:08:30;;;;;;;8.73;5.30;;;;;;;;;;7370525;19;20697;-71
2022/03/04 14:10:59;;;;;;;9.38;5.53;;;;;;;;;;7370509;19;20014;-71
2022/03/04 14:13:24;;;;;;;9.55;5.90;;;;;;;;;;7371782;19;20007;-71
2022/03/04 14:15:51;;;;;;;9.43;5.35;;;;;;;;;;7368036;19;20171;-71
2022/03/04 14:18:20;;;;;;;9.52;6.00;;;;;;;;;;7367187;19;20018;-73
2022/03/04 14:20:47;;;;;;;7.47;4.72;;;;;;;;;;7368507;19;20010;-71
2022/03/04 14:23:13;;;;;;;8.18;5.38;;;;;;;;;;7365137;19;20006;-72
2022/03/04 14:25:39;;;;;;;8.52;4.38;;;;;;;;;;7367859;19;20006;-71
2022/03/04 14:28:07;;;;;;;7.22;4.15;;;;;;;;;;7369054;19;20025;-71
2022/03/04 14:30:34;;;;;;;6.22;4.13;;;;;;;;;;7368821;19;20050;-71
2022/03/04 14:33:01;;;;;;;5.50;3.20;;;;;;;;;;7371880;19;20014;-71
2022/03/04 14:35:29;;;;;;;3.38;2.30;;;;;;;;;;7370157;19;20007;-72
2022/03/04 14:37:55;;;;;;;7.63;2.97;;;;;;;;;;7370801;19;21037;-72